Time;durP1;ratioP1;P1;durP2;ratioP2;P2;SDS_P1;SDS_P2;PMS_P1;PMS_P2;Temp;Humidity;BMP_temperature;BMP_pressure;BME280_temperature;BME280_humidity;BME280_pressure;Samples;Min_cycle;Max_cycle;Signal;HPM_P1;HPM_P2
2022/07/15 00:02:00;;;;;;;6.30;1.70;;;;;;;14.09;77.62;101875.81;5089083;28;20212;-72
2022/07/15 00:04:26;;;;;;;7.40;2.03;;;;;;;14.04;77.58;101874.84;5089285;28;20306;-71
2022/07/15 00:06:51;;;;;;;4.70;1.60;;;;;;;14.04;77.88;101874.84;5070892;28;20230;-71
2022/07/15 00:09:17;;;;;;;5.93;1.60;;;;;;;14.01;77.83;101874.81;5089074;28;20212;-72
2022/07/15 00:11:42;;;;;;;5.10;1.50;;;;;;;14.00;78.03;101879.91;5089349;28;20192;-71
2022/07/15 00:14:08;;;;;;;6.90;1.93;;;;;;;13.99;78.10;101881.59;5088777;28;20192;-71
2022/07/15 00:16:33;;;;;;;6.33;1.83;;;;;;;13.97;78.40;101875.56;5070638;28;20184;-71
2022/07/15 00:18:58;;;;;;;9.13;1.80;;;;;;;13.91;78.53;101890.84;5090937;28;20200;-71
2022/07/15 00:21:24;;;;;;;10.40;2.07;;;;;;;13.92;78.48;101889.16;5093454;28;20282;-72
2022/07/15 00:23:49;;;;;;;6.20;1.70;;;;;;;13.97;78.42;101884.97;5108849;28;20204;-72
2022/07/15 00:26:15;;;;;;;7.80;2.00;;;;;;;13.98;78.80;101882.44;5093131;28;20202;-72
2022/07/15 00:28:40;;;;;;;5.50;1.63;;;;;;;13.99;78.12;101870.44;5093128;28;20247;-71
2022/07/15 00:31:06;;;;;;;9.60;1.80;;;;;;;14.02;78.67;101881.69;5075702;28;20226;-71
2022/07/15 00:33:31;;;;;;;9.70;1.90;;;;;;;14.04;78.27;101879.16;5092824;28;20192;-71
2022/07/15 00:35:57;;;;;;;7.90;1.80;;;;;;;14.07;78.06;101876.63;5093183;28;20242;-70
2022/07/15 00:38:22;;;;;;;8.83;2.13;;;;;;;14.08;78.43;101881.81;5092787;28;20219;-72
2022/07/15 00:40:49;;;;;;;8.83;2.10;;;;;;;14.10;78.10;101882.72;5074876;28;20664;-71
2022/07/15 00:43:16;;;;;;;5.00;1.53;;;;;;;14.13;77.87;101880.19;5070822;28;20719;-71
2022/07/15 00:45:43;;;;;;;5.57;2.00;;;;;;;14.11;77.92;101870.69;5091771;28;20849;-71
2022/07/15 00:48:09;;;;;;;7.03;1.60;;;;;;;14.16;78.24;101880.28;5057987;28;20211;-71
2022/07/15 00:50:34;;;;;;;5.33;1.43;;;;;;;14.15;78.30;101878.53;5092958;28;20180;-72
2022/07/15 00:53:05;;;;;;;7.67;1.70;;;;;;;14.17;78.13;101882.00;5074883;28;20267;-71
2022/07/15 00:55:33;;;;;;;4.63;1.53;;;;;;;14.18;77.98;101885.47;5074212;28;20651;-72
2022/07/15 00:58:04;;;;;;;5.73;1.77;;;;;;;14.22;78.47;101895.88;5092211;28;20204;-72
2022/07/15 01:00:31;;;;;;;8.77;1.77;;;;;;;14.22;79.22;101888.16;5092769;28;20172;-71
2022/07/15 01:02:58;;;;;;;6.73;1.40;;;;;;;14.23;78.68;101891.63;5074426;28;20184;-71
2022/07/15 01:05:24;;;;;;;8.30;2.03;;;;;;;14.26;79.24;101886.50;5092366;28;20180;-72
2022/07/15 01:07:50;;;;;;;6.20;1.57;;;;;;;14.24;78.99;101894.22;5092391;28;20212;-72
2022/07/15 01:10:20;;;;;;;6.00;1.70;;;;;;;14.24;79.31;101885.63;5076450;28;20191;-71
2022/07/15 01:12:48;;;;;;;7.00;1.70;;;;;;;14.23;79.12;101889.03;5075758;28;20564;-71
2022/07/15 01:15:15;;;;;;;7.67;1.90;;;;;;;14.22;78.79;101885.59;5073917;28;20275;-72
2022/07/15 01:17:43;;;;;;;8.77;2.00;;;;;;;14.20;78.52;101887.28;5073679;28;20188;-72
2022/07/15 01:20:10;;;;;;;4.73;1.73;;;;;;;14.17;79.14;101894.88;5074010;28;20215;-69
2022/07/15 01:22:43;;;;;;;8.27;1.67;;;;;;;14.15;79.23;101890.53;5107863;28;20217;-70
2022/07/15 01:25:09;;;;;;;5.53;1.63;;;;;;;14.12;79.24;101888.78;5073828;28;20188;-72
2022/07/15 01:27:35;;;;;;;4.97;1.30;;;;;;;14.08;79.16;101896.41;5073568;28;20184;-72
2022/07/15 01:30:00;;;;;;;6.27;1.53;;;;;;;14.04;79.24;101898.03;5074544;28;20184;-72
2022/07/15 01:32:28;;;;;;;7.43;1.50;;;;;;;14.00;79.13;101898.78;5080197;28;20172;-70
2022/07/15 01:34:54;;;;;;;4.60;1.30;;;;;;;13.98;79.23;101902.16;5074007;28;20184;-73
2022/07/15 01:37:21;;;;;;;6.70;1.57;;;;;;;14.00;79.16;101890.22;5073719;28;20196;-71
2022/07/15 01:39:52;;;;;;;10.40;1.67;;;;;;;14.01;79.22;101895.41;5073592;28;20235;-72
2022/07/15 01:42:18;;;;;;;5.50;1.40;;;;;;;14.02;79.13;101894.56;5073478;28;20251;-72
2022/07/15 01:44:44;;;;;;;7.80;1.67;;;;;;;14.05;78.95;101899.75;5056873;28;20194;-72
2022/07/15 01:47:09;;;;;;;6.83;1.60;;;;;;;14.06;79.13;101903.22;5073002;28;20195;-72
2022/07/15 01:49:35;;;;;;;7.37;1.90;;;;;;;14.06;80.68;101898.94;5073199;28;20241;-72
2022/07/15 01:52:02;;;;;;;6.43;1.70;;;;;;;14.02;80.76;101906.56;5091617;28;20279;-72
2022/07/15 01:54:29;;;;;;;4.37;1.53;;;;;;;14.01;80.40;101902.25;5072967;28;20219;-72
2022/07/15 01:56:58;;;;;;;9.43;1.70;;;;;;;14.02;81.21;101898.81;5073186;28;20219;-72
2022/07/15 01:59:25;;;;;;;7.57;1.57;;;;;;;14.01;80.98;101902.25;5073235;28;20998;-72
2022/07/15 02:01:52;;;;;;;4.90;1.83;;;;;;;13.98;79.76;101897.00;5073419;28;20304;-72
2022/07/15 02:04:21;;;;;;;6.40;1.50;;;;;;;13.98;79.69;101897.91;5073198;28;20188;-72
2022/07/15 02:06:47;;;;;;;7.33;2.03;;;;;;;13.98;79.70;101894.44;5073332;28;20657;-72
2022/07/15 02:09:15;;;;;;;5.90;1.30;;;;;;;13.96;79.52;101884.13;5073653;28;20276;-72
2022/07/15 02:11:43;;;;;;;5.70;1.30;;;;;;;13.97;79.31;101887.56;5107406;28;20257;-72
2022/07/15 02:14:09;;;;;;;5.80;1.37;;;;;;;13.98;79.55;101894.44;5073400;28;20904;-72
2022/07/15 02:16:35;;;;;;;6.93;1.40;;;;;;;13.92;79.19;101886.59;5072658;28;20234;-71
2022/07/15 02:19:05;;;;;;;7.53;1.87;;;;;;;13.91;78.72;101895.16;5073600;28;20919;-72
2022/07/15 02:21:30;;;;;;;5.30;1.60;;;;;;;13.90;79.55;101896.84;5090931;28;20303;-72
2022/07/15 02:23:58;;;;;;;7.83;1.73;;;;;;;13.93;79.74;101891.78;5072936;28;20176;-72
2022/07/15 02:26:24;;;;;;;8.07;1.83;;;;;;;13.94;79.13;101898.66;5072993;28;20180;-71
2022/07/15 02:28:50;;;;;;;4.93;1.47;;;;;;;13.96;79.27;101904.72;5072841;28;20204;-72
2022/07/15 02:31:16;;;;;;;4.13;1.77;;;;;;;14.00;78.90;101905.66;5080906;28;20662;-72
2022/07/15 02:33:41;;;;;;;5.03;1.50;;;;;;;14.00;79.37;101892.78;5073135;28;20195;-72
2022/07/15 02:36:09;;;;;;;7.23;1.40;;;;;;;14.00;78.53;101908.25;5056445;28;20181;-72
2022/07/15 02:38:35;;;;;;;5.53;1.40;;;;;;;14.02;78.55;101910.00;5072497;28;20212;-72
2022/07/15 02:41:02;;;;;;;5.63;1.60;;;;;;;14.03;78.57;101919.47;5071604;28;20216;-72
2022/07/15 02:43:28;;;;;;;6.17;1.30;;;;;;;14.05;78.76;101922.94;5056259;28;20226;-72
2022/07/15 02:45:55;;;;;;;5.67;1.30;;;;;;;14.03;80.98;101926.31;5107546;28;20184;-72
2022/07/15 02:48:21;;;;;;;5.77;1.57;;;;;;;13.95;82.45;101933.88;5072632;28;20207;-72
2022/07/15 02:50:49;;;;;;;3.90;1.40;;;;;;;13.87;82.79;101921.66;5072846;28;20180;-72
2022/07/15 02:53:18;;;;;;;5.40;1.20;;;;;;;13.84;83.21;101929.31;5072494;28;20184;-72
2022/07/15 02:55:43;;;;;;;4.37;1.40;;;;;;;13.80;83.60;101928.38;5054842;28;20180;-72
2022/07/15 02:58:10;;;;;;;5.67;1.40;;;;;;;13.83;84.43;101922.41;5071744;28;20200;-72
2022/07/15 03:00:37;;;;;;;4.23;1.37;;;;;;;13.81;84.04;101919.81;5072379;28;20184;-72
2022/07/15 03:03:03;;;;;;;7.83;1.50;;;;;;;13.79;84.93;101925.75;5071933;28;20180;-72
2022/07/15 03:05:30;;;;;;;4.40;1.50;;;;;;;13.81;84.79;101926.69;5089242;28;20187;-72
2022/07/15 03:07:55;;;;;;;6.57;1.37;;;;;;;13.81;84.26;101921.53;5071545;28;20208;-73
2022/07/15 03:10:22;;;;;;;4.87;1.33;;;;;;;13.74;83.94;101917.94;5105685;28;20184;-72
2022/07/15 03:12:48;;;;;;;6.43;1.40;;;;;;;13.73;82.46;101917.91;5071812;28;20187;-72
2022/07/15 03:15:13;;;;;;;6.07;1.40;;;;;;;13.74;82.49;101917.94;5071863;28;20271;-72
2022/07/15 03:17:41;;;;;;;6.77;1.57;;;;;;;13.72;82.45;101922.16;5088815;28;20322;-72
2022/07/15 03:20:11;;;;;;;7.73;1.43;;;;;;;13.68;82.57;101920.34;5071865;28;20185;-72
2022/07/15 03:22:43;;;;;;;9.43;1.83;;;;;;;13.73;82.70;101921.34;5105645;28;20219;-71
2022/07/15 03:25:09;;;;;;;8.27;1.30;;;;;;;13.69;82.86;101919.53;5055036;28;20269;-72
2022/07/15 03:27:35;;;;;;;6.70;1.47;;;;;;;13.71;82.48;101923.00;5071489;28;20242;-72
2022/07/15 03:30:04;;;;;;;5.87;2.03;;;;;;;13.69;83.46;101916.97;5074218;28;20185;-72
2022/07/15 03:32:30;;;;;;;6.47;1.47;;;;;;;13.58;84.21;101928.69;5077863;28;20191;-71
2022/07/15 03:34:58;;;;;;;4.60;1.40;;;;;;;13.50;84.08;101937.06;5071712;28;20689;-72
2022/07/15 03:37:27;;;;;;;4.93;1.27;;;;;;;13.48;84.33;101942.16;5071349;28;20176;-71
2022/07/15 03:39:52;;;;;;;7.47;1.87;;;;;;;13.46;83.81;101935.22;5089342;28;20566;-72
2022/07/15 03:42:18;;;;;;;8.30;1.83;;;;;;;13.47;83.85;101940.41;5071381;28;20212;-73
2022/07/15 03:44:44;;;;;;;5.20;1.50;;;;;;;13.49;83.81;101935.31;5071476;28;20919;-72
2022/07/15 03:47:10;;;;;;;9.33;1.70;;;;;;;13.42;84.09;101941.13;5089518;28;20184;-72
2022/07/15 03:49:35;;;;;;;5.83;1.53;;;;;;;13.42;83.93;101939.44;5104956;28;20337;-72
2022/07/15 03:52:01;;;;;;;9.53;1.87;;;;;;;13.40;84.43;101938.50;5071364;28;20552;-72
2022/07/15 03:54:27;;;;;;;4.90;1.10;;;;;;;13.41;83.95;101941.97;5070867;28;20211;-72
2022/07/15 03:56:53;;;;;;;5.53;1.43;;;;;;;13.44;83.92;101942.06;5088767;28;20191;-72
2022/07/15 03:59:22;;;;;;;9.83;1.87;;;;;;;13.45;83.41;101949.78;5070652;28;20204;-71
2022/07/15 04:01:49;;;;;;;4.53;1.37;;;;;;;13.50;83.42;101955.06;5071845;28;20549;-72
2022/07/15 04:04:15;;;;;;;10.53;1.53;;;;;;;13.51;82.99;101949.09;5070804;28;20184;-72
2022/07/15 04:06:40;;;;;;;9.70;1.70;;;;;;;13.56;83.07;101956.09;5071247;28;20192;-72
2022/07/15 04:09:07;;;;;;;5.70;1.33;;;;;;;13.62;83.17;101963.97;5070935;28;20238;-71
2022/07/15 04:11:33;;;;;;;5.50;1.30;;;;;;;13.68;83.51;101966.69;5071040;28;20216;-72
2022/07/15 04:13:59;;;;;;;5.93;1.70;;;;;;;13.77;83.56;101966.06;5071141;28;20231;-72
2022/07/15 04:16:24;;;;;;;5.07;1.50;;;;;;;13.76;83.17;101967.75;5071101;28;20192;-72
2022/07/15 04:18:51;;;;;;;6.83;1.47;;;;;;;13.79;83.13;101966.94;5070172;28;20566;-72
2022/07/15 04:21:17;;;;;;;5.40;1.50;;;;;;;13.71;82.56;101960.75;5071141;28;20187;-72
2022/07/15 04:23:43;;;;;;;6.13;1.40;;;;;;;13.67;83.02;101962.38;5070945;28;20219;-72
2022/07/15 04:26:09;;;;;;;4.20;1.40;;;;;;;13.71;82.74;101964.19;5071248;28;20697;-72
2022/07/15 04:28:34;;;;;;;5.70;1.70;;;;;;;13.67;83.08;101961.53;5070946;28;20218;-72
2022/07/15 04:31:00;;;;;;;3.50;1.40;;;;;;;13.67;83.38;101971.81;5072504;28;20234;-72
2022/07/15 04:33:32;;;;;;;7.13;1.53;;;;;;;13.66;83.43;101963.22;5078887;28;20177;-72
2022/07/15 04:35:57;;;;;;;4.67;1.33;;;;;;;13.69;82.96;101959.84;5070872;28;20184;-72
2022/07/15 04:38:23;;;;;;;7.20;2.00;;;;;;;13.78;82.62;101970.38;5104790;28;20211;-72
2022/07/15 04:40:49;;;;;;;7.77;1.87;;;;;;;13.81;83.09;101968.72;5071655;28;20195;-72
2022/07/15 04:43:17;;;;;;;3.77;1.20;;;;;;;13.87;82.51;101963.75;5070999;28;20211;-72
2022/07/15 04:45:44;;;;;;;6.83;1.70;;;;;;;13.87;83.28;101971.47;5070889;28;20180;-72
2022/07/15 04:50:56;;;;;;;8.40;2.00;;;;;;;13.98;82.24;101966.56;5059759;28;20187;-72
2022/07/15 04:53:25;;;;;;;8.00;1.70;;;;;;;13.86;82.24;101958.56;5070509;28;20187;-72
2022/07/15 04:55:52;;;;;;;5.90;1.60;;;;;;;13.86;82.48;101955.97;5070923;28;20180;-72
2022/07/15 04:58:17;;;;;;;4.63;1.83;;;;;;;13.94;82.17;101967.31;5088526;28;20201;-72
2022/07/15 05:00:44;;;;;;;5.37;1.43;;;;;;;13.94;82.12;101964.72;5071057;28;20353;-72
2022/07/15 05:03:12;;;;;;;7.70;1.50;;;;;;;14.03;82.26;101970.09;5070954;28;20178;-72
2022/07/15 05:05:38;;;;;;;6.17;1.30;;;;;;;13.90;81.70;101979.25;5073256;28;20190;-72
2022/07/15 05:08:04;;;;;;;8.30;1.47;;;;;;;13.98;81.92;101976.84;5074026;28;20282;-72
2022/07/15 05:10:34;;;;;;;5.33;1.53;;;;;;;14.04;81.04;101977.88;5108068;28;20287;-71
2022/07/15 05:13:03;;;;;;;5.53;1.50;;;;;;;14.09;81.36;101978.00;5057197;28;21013;-72
2022/07/15 05:15:30;;;;;;;5.47;1.23;;;;;;;14.18;80.79;101983.38;5057220;28;20180;-72
2022/07/15 05:18:02;;;;;;;5.47;1.10;;;;;;;14.17;80.91;101985.06;5073721;28;20207;-72
2022/07/15 05:20:27;;;;;;;7.23;1.23;;;;;;;14.28;80.31;101981.03;5074006;28;20192;-72
2022/07/15 05:22:53;;;;;;;6.50;1.43;;;;;;;14.16;81.35;101979.84;5073990;28;20185;-72
2022/07/15 05:25:19;;;;;;;6.27;1.60;;;;;;;14.23;81.12;101985.22;5073761;28;20184;-72
2022/07/15 05:27:45;;;;;;;6.03;1.43;;;;;;;14.23;80.77;101994.69;5073666;28;20558;-72
2022/07/15 05:30:16;;;;;;;6.83;1.47;;;;;;;14.30;80.63;101997.41;5076894;28;20579;-72
2022/07/15 05:32:42;;;;;;;5.23;1.50;;;;;;;14.32;81.04;101998.31;5078187;28;20620;-73
2022/07/15 05:35:17;;;;;;;7.73;1.97;;;;;;;14.37;80.40;102001.00;5073736;28;20180;-72
2022/07/15 05:37:43;;;;;;;7.83;1.93;;;;;;;14.44;80.80;101998.59;5107327;28;20180;-73
2022/07/15 05:40:14;;;;;;;9.70;1.70;;;;;;;14.53;79.93;101996.22;5073965;28;20180;-72
2022/07/15 05:42:46;;;;;;;5.20;1.63;;;;;;;14.56;79.76;102003.16;5073779;28;20176;-72
2022/07/15 05:45:12;;;;;;;7.90;1.57;;;;;;;14.47;80.13;101998.69;5074094;28;20270;-72
2022/07/15 05:47:49;;;;;;;5.00;1.70;;;;;;;14.64;79.48;102004.19;5057832;28;20542;-72
2022/07/15 05:50:19;;;;;;;8.77;1.83;;;;;;;14.64;79.56;102011.94;5073537;28;20260;-72
2022/07/15 05:52:45;;;;;;;5.67;1.73;;;;;;;14.73;79.36;102007.81;5073421;28;20266;-72
2022/07/15 05:55:11;;;;;;;6.63;1.73;;;;;;;14.73;79.82;102015.56;5073295;28;20180;-72
2022/07/15 05:57:37;;;;;;;4.67;1.70;;;;;;;14.78;79.83;102013.09;5072703;28;20189;-72
2022/07/15 06:00:05;;;;;;;4.77;1.50;;;;;;;14.85;79.52;102013.25;5073262;28;20181;-72
2022/07/15 06:02:39;;;;;;;6.67;1.63;;;;;;;14.93;79.70;102010.81;5083152;28;20188;-72
2022/07/15 06:05:06;;;;;;;4.97;1.70;;;;;;;14.93;78.48;102011.72;5069624;28;20233;-72
2022/07/15 06:07:33;;;;;;;5.00;1.10;;;;;;;14.94;78.22;102018.59;5036234;28;20196;-72
2022/07/15 06:09:59;;;;;;;6.17;1.50;;;;;;;14.99;78.07;102022.16;5060674;28;20261;-72
2022/07/15 06:12:25;;;;;;;5.77;1.30;;;;;;;14.99;78.32;102031.56;5107063;28;20216;-72
2022/07/15 06:14:50;;;;;;;3.93;1.70;;;;;;;15.01;77.97;102037.66;5073236;28;20718;-72
2022/07/15 06:17:18;;;;;;;5.90;1.50;;;;;;;15.02;78.99;102042.84;5106630;28;20283;-72
2022/07/15 06:19:44;;;;;;;5.60;1.40;;;;;;;15.04;78.52;102040.28;5106913;28;20296;-72
2022/07/15 06:22:09;;;;;;;4.07;1.30;;;;;;;15.05;78.40;102040.31;5099445;28;20177;-72
2022/07/15 06:24:35;;;;;;;4.87;1.50;;;;;;;15.05;78.99;102040.31;5086808;28;20196;-72
2022/07/15 06:27:00;;;;;;;2.70;1.30;;;;;;;15.12;79.36;102034.47;5086642;28;20177;-72
2022/07/15 06:29:26;;;;;;;4.97;1.13;;;;;;;15.23;77.92;102034.66;5062464;28;20731;-72
2022/07/15 06:31:54;;;;;;;6.20;1.37;;;;;;;15.44;78.86;102035.09;5099662;28;20216;-72
2022/07/15 06:34:20;;;;;;;3.90;1.47;;;;;;;15.56;75.43;102028.44;5073135;28;20188;-72
2022/07/15 06:36:46;;;;;;;3.50;1.37;;;;;;;15.85;75.25;102028.97;5072561;28;20188;-72
2022/07/15 06:39:11;;;;;;;5.80;1.43;;;;;;;16.33;72.88;102032.31;5072743;28;20561;-72
2022/07/15 06:41:37;;;;;;;5.23;1.30;;;;;;;16.72;70.21;102022.59;5070716;28;20230;-73
2022/07/15 06:44:05;;;;;;;3.23;1.10;;;;;;;16.68;70.41;102023.41;5088419;28;20184;-72
2022/07/15 06:46:34;;;;;;;4.07;1.03;;;;;;;16.70;70.37;102026.88;5092601;28;20179;-72
2022/07/15 06:49:02;;;;;;;4.67;1.27;;;;;;;16.70;70.34;102027.75;5072527;28;20242;-73
2022/07/15 06:51:29;;;;;;;7.03;1.40;;;;;;;16.74;69.44;102037.28;5072424;28;20212;-72
2022/07/15 06:53:55;;;;;;;7.10;1.30;;;;;;;16.86;68.87;102026.22;5072376;28;20237;-72
2022/07/15 06:56:28;;;;;;;3.03;1.10;;;;;;;16.92;67.80;102036.66;5056480;28;20188;-72
2022/07/15 06:58:54;;;;;;;5.30;1.30;;;;;;;16.97;68.40;102032.41;5068801;28;20208;-72
2022/07/15 07:01:19;;;;;;;3.80;1.40;;;;;;;16.91;69.19;102037.50;5055118;28;20242;-72
2022/07/15 07:03:45;;;;;;;5.43;1.37;;;;;;;16.87;69.26;102033.13;5089080;28;20284;-72
2022/07/15 07:06:11;;;;;;;8.47;1.70;;;;;;;17.11;68.57;102036.91;5072469;28;20184;-73
2022/07/15 07:08:36;;;;;;;5.73;1.20;;;;;;;17.66;67.42;102038.41;5090226;28;20654;-72
2022/07/15 07:11:02;;;;;;;3.90;1.07;;;;;;;17.65;65.85;102034.06;5105937;28;20192;-72
2022/07/15 07:13:28;;;;;;;4.27;1.40;;;;;;;17.55;66.43;102038.28;5090301;28;20181;-72
2022/07/15 07:15:53;;;;;;;5.43;1.30;;;;;;;17.62;66.14;102037.50;5090270;28;20196;-73
2022/07/15 07:18:19;;;;;;;7.70;1.80;;;;;;;17.30;66.50;102038.84;5071137;28;20204;-72
2022/07/15 07:20:44;;;;;;;5.47;1.50;;;;;;;17.33;67.07;102043.19;5071820;28;20663;-72
2022/07/15 07:23:11;;;;;;;5.70;1.37;;;;;;;17.11;67.56;102047.25;5090103;28;20205;-72
2022/07/15 07:25:36;;;;;;;6.03;1.63;;;;;;;17.07;69.99;102045.47;5090352;28;20707;-73
2022/07/15 07:28:03;;;;;;;5.30;1.43;;;;;;;17.00;69.87;102048.81;5089454;28;20247;-72
2022/07/15 07:30:30;;;;;;;4.83;1.20;;;;;;;16.93;69.18;102057.38;5071910;28;20555;-72
2022/07/15 07:32:55;;;;;;;6.03;1.40;;;;;;;17.03;70.17;102048.88;5089501;28;20247;-72
2022/07/15 07:35:21;;;;;;;5.03;1.67;;;;;;;17.12;69.14;102050.69;5082885;28;20209;-73
2022/07/15 07:37:47;;;;;;;3.27;1.27;;;;;;;17.28;68.72;102050.03;5069542;28;20713;-73
2022/07/15 07:40:12;;;;;;;8.43;1.53;;;;;;;17.21;67.99;102046.50;5086151;28;20637;-72
2022/07/15 07:42:38;;;;;;;5.20;1.40;;;;;;;17.04;68.57;102042.84;5101662;28;20660;-72
2022/07/15 07:45:05;;;;;;;6.60;1.60;;;;;;;16.95;69.34;102054.81;5110049;28;20192;-72
2022/07/15 07:47:37;;;;;;;3.90;1.17;;;;;;;16.86;68.30;102050.38;5108993;28;20180;-72
2022/07/15 07:50:04;;;;;;;4.53;1.50;;;;;;;16.96;68.07;102049.66;5110137;28;20244;-72
2022/07/15 07:52:29;;;;;;;5.57;1.33;;;;;;;17.02;67.23;102049.72;5095397;28;20698;-72
2022/07/15 07:54:55;;;;;;;9.07;1.70;;;;;;;17.10;67.53;102044.66;5089905;28;20241;-72
2022/07/15 07:57:20;;;;;;;5.17;1.53;;;;;;;17.33;67.47;102050.97;5071355;28;20192;-73
2022/07/15 07:59:46;;;;;;;5.23;1.53;;;;;;;17.36;66.94;102048.41;5089720;28;20210;-73
2022/07/15 08:02:11;;;;;;;3.93;1.27;;;;;;;17.40;67.09;102050.22;5071202;28;20184;-73
2022/07/15 08:04:37;;;;;;;6.37;1.50;;;;;;;17.40;66.48;102050.22;5089541;28;20200;-72
2022/07/15 08:07:05;;;;;;;5.80;1.43;;;;;;;17.36;66.32;102057.03;5071439;28;20188;-73
2022/07/15 08:09:30;;;;;;;6.13;1.73;;;;;;;17.10;66.35;102049.81;5089597;28;20211;-73
2022/07/15 08:11:56;;;;;;;5.37;1.70;;;;;;;17.32;66.15;102054.41;5089433;28;20212;-73
2022/07/15 08:14:21;;;;;;;7.00;1.60;;;;;;;17.36;64.73;102051.00;5089717;28;20271;-72
2022/07/15 08:16:47;;;;;;;5.33;1.50;;;;;;;17.63;64.14;102054.78;5089234;28;20196;-73
2022/07/15 08:19:15;;;;;;;4.73;1.30;;;;;;;17.85;62.71;102055.84;5071289;28;20216;-73
2022/07/15 08:21:41;;;;;;;4.73;1.23;;;;;;;18.03;62.59;102043.06;5071348;28;20184;-72
2022/07/15 08:24:07;;;;;;;6.50;1.13;;;;;;;18.19;62.08;102042.34;5089368;28;20192;-71
2022/07/15 08:26:32;;;;;;;6.20;1.20;;;;;;;18.17;62.53;102041.44;5089114;28;20195;-72
2022/07/15 08:28:58;;;;;;;5.33;1.30;;;;;;;17.97;63.07;102038.69;5089260;28;20212;-72
2022/07/15 08:31:23;;;;;;;7.33;1.60;;;;;;;17.71;63.69;102041.91;5089199;28;20216;-72
2022/07/15 08:33:49;;;;;;;4.83;1.60;;;;;;;17.61;64.24;102038.38;5089240;28;20180;-71
2022/07/15 08:36:14;;;;;;;8.37;1.90;;;;;;;17.54;64.92;102040.88;5097321;28;20268;-71
2022/07/15 08:38:40;;;;;;;10.17;2.23;;;;;;;17.55;64.41;102050.38;5070808;28;20570;-72
2022/07/15 08:41:05;;;;;;;7.07;1.33;;;;;;;17.53;65.32;102047.78;5094922;28;20654;-72
2022/07/15 08:43:32;;;;;;;3.83;1.37;;;;;;;17.68;65.16;102047.91;5099265;28;20565;-72
2022/07/15 08:45:58;;;;;;;3.97;1.30;;;;;;;17.89;63.25;102045.53;5093068;28;20191;-72
2022/07/15 08:48:28;;;;;;;3.57;1.10;;;;;;;18.03;62.86;102040.47;5092711;28;20201;-71
2022/07/15 08:50:55;;;;;;;6.53;1.10;;;;;;;18.08;63.10;102039.66;5093073;28;20238;-72
2022/07/15 08:53:21;;;;;;;4.53;1.10;;;;;;;18.07;62.05;102043.13;5074864;28;20184;-71
2022/07/15 08:55:47;;;;;;;4.37;1.20;;;;;;;18.24;61.40;102046.69;5093284;28;20286;-72
2022/07/15 08:58:12;;;;;;;5.70;1.17;;;;;;;18.48;60.84;102049.50;5092806;28;20345;-72
2022/07/15 09:00:38;;;;;;;7.53;1.23;;;;;;;18.64;61.14;102053.91;5092934;28;20188;-72
2022/07/15 09:03:05;;;;;;;4.37;1.13;;;;;;;18.59;60.48;102045.25;5074671;28;20261;-72
2022/07/15 09:05:35;;;;;;;4.10;1.20;;;;;;;18.86;60.73;102039.31;5074690;28;20188;-72
2022/07/15 09:08:10;;;;;;;7.07;1.20;;;;;;;18.97;61.96;102045.47;5092628;28;20206;-72
2022/07/15 09:10:52;;;;;;;7.13;1.77;;;;;;;18.90;60.94;102043.69;5092791;28;20175;-72
2022/07/15 09:13:36;;;;;;;4.67;1.50;;;;;;;19.17;62.94;102049.00;5092647;28;20208;-71
2022/07/15 09:16:08;;;;;;;3.30;1.20;;;;;;;19.58;59.62;102044.81;5092477;28;20188;-71
2022/07/15 09:18:36;;;;;;;3.10;1.30;;;;;;;20.19;58.33;102044.03;5074000;28;20239;-72
2022/07/15 09:21:02;;;;;;;2.63;0.80;;;;;;;20.23;55.63;102040.56;5092575;28;20245;-71
2022/07/15 09:23:29;;;;;;;3.87;1.43;;;;;;;20.40;55.31;102033.59;5074326;28;20194;-71
2022/07/15 09:26:26;;;;;;;4.53;1.10;;;;;;;21.16;55.23;102038.59;5092873;28;20673;-73
2022/07/15 09:28:53;;;;;;;7.47;1.57;;;;;;;21.54;53.29;102027.94;5074508;28;20757;-71
2022/07/15 09:34:18;;;;;;;5.80;1.40;;;;;;;22.23;50.74;102036.13;5092372;28;20177;-71
2022/07/15 09:36:50;;;;;;;5.60;1.27;;;;;;;21.25;50.64;102027.25;5090648;28;20173;-72
2022/07/15 09:39:16;;;;;;;2.07;1.20;;;;;;;21.33;51.15;102028.94;5092324;28;20291;-72
2022/07/15 09:41:44;;;;;;;3.83;1.40;;;;;;;21.46;50.46;102027.16;5099283;28;20188;-72
2022/07/15 09:44:13;;;;;;;4.07;1.30;;;;;;;21.11;51.51;102031.66;5092661;28;20200;-72
2022/07/15 09:46:50;;;;;;;3.27;0.80;;;;;;;20.66;50.57;102034.41;5090852;28;20227;-73
2022/07/15 09:49:24;;;;;;;2.10;1.03;;;;;;;20.29;51.53;102040.53;5111001;28;20562;-72
2022/07/15 09:52:07;;;;;;;2.77;1.03;;;;;;;19.66;52.37;102037.91;5093506;28;20219;-72
2022/07/15 09:54:34;;;;;;;5.60;1.00;;;;;;;19.79;54.20;102039.63;5094067;28;20191;-72
2022/07/15 09:57:01;;;;;;;3.77;0.87;;;;;;;19.80;53.61;102046.59;5111897;28;20195;-72
2022/07/15 09:59:29;;;;;;;4.20;1.07;;;;;;;19.68;54.34;102051.75;5111936;28;20210;-72
2022/07/15 10:01:55;;;;;;;4.83;0.90;;;;;;;19.45;55.25;102056.03;5076088;28;20326;-71
2022/07/15 10:04:24;;;;;;;2.70;0.87;;;;;;;19.44;56.56;102060.34;5091607;28;20195;-73
2022/07/15 10:06:52;;;;;;;2.30;0.80;;;;;;;19.40;56.83;102058.59;5073363;28;20191;-71
2022/07/15 10:09:27;;;;;;;3.67;1.20;;;;;;;19.94;56.36;102055.28;5091433;28;20209;-72
2022/07/15 10:11:56;;;;;;;5.37;0.90;;;;;;;20.06;54.74;102065.66;5071252;28;20330;-72
2022/07/15 10:14:33;;;;;;;2.07;0.70;;;;;;;19.78;54.04;102066.50;5080602;28;20214;-72
2022/07/15 10:17:17;;;;;;;4.43;0.60;;;;;;;19.76;54.79;102063.88;5072674;28;20971;-72
2022/07/15 10:20:19;;;;;;;3.47;0.77;;;;;;;20.02;54.17;102059.59;5062903;28;20205;-72
2022/07/15 10:23:05;;;;;;;2.43;0.80;;;;;;;20.59;52.64;102041.34;5083975;28;20191;-71
2022/07/15 10:25:43;;;;;;;6.20;1.10;;;;;;;21.20;51.90;102052.47;5091298;28;20237;-72
2022/07/15 10:28:24;;;;;;;1.73;0.90;;;;;;;21.73;50.48;102040.88;5090633;28;20222;-72
2022/07/15 10:31:17;;;;;;;2.43;0.70;;;;;;;21.88;48.79;102037.31;5091196;28;20553;-72
2022/07/15 10:34:02;;;;;;;2.27;0.70;;;;;;;22.05;49.29;102040.63;5091100;28;20199;-72
2022/07/15 10:36:40;;;;;;;2.60;0.87;;;;;;;22.58;48.72;102027.97;5090731;28;20188;-71
2022/07/15 10:39:06;;;;;;;3.77;1.00;;;;;;;21.61;47.28;102029.66;5106869;28;20208;-72
2022/07/15 10:41:58;;;;;;;2.73;0.80;;;;;;;21.54;47.95;102034.03;5099455;28;20534;-72
2022/07/15 10:44:48;;;;;;;2.03;0.90;;;;;;;21.26;47.62;102034.19;5086970;28;20227;-72
2022/07/15 10:47:13;;;;;;;4.87;2.40;;;;;;;22.25;46.35;102030.91;5090510;28;20195;-72
2022/07/15 10:49:40;;;;;;;2.47;1.07;;;;;;;23.11;44.37;102030.81;5080500;28;20216;-72
2022/07/15 10:52:15;;;;;;;2.83;0.80;;;;;;;23.29;42.63;102025.38;5052477;28;20295;-72
2022/07/15 10:54:44;;;;;;;4.37;0.83;;;;;;;22.95;42.88;102021.44;5052259;28;20279;-72
2022/07/15 10:57:10;;;;;;;2.53;1.00;;;;;;;22.86;43.06;102025.91;5070035;28;20280;-71
2022/07/15 10:59:41;;;;;;;3.10;1.25;;;;;;;23.64;43.20;102023.13;5070066;28;20208;-72
2022/07/15 11:02:06;;;;;;;5.57;0.93;;;;;;;23.43;42.83;102012.97;5097672;28;20177;-72
2022/07/15 11:04:33;;;;;;;1.70;0.80;;;;;;;23.00;42.66;102018.75;5090529;28;20180;-72
2022/07/15 11:07:02;;;;;;;2.87;0.80;;;;;;;23.00;43.07;102024.00;5090290;28;20215;-72
2022/07/15 11:09:46;;;;;;;3.00;0.70;;;;;;;22.97;42.39;102017.06;5090306;28;20584;-72
2022/07/15 11:12:12;;;;;;;3.10;1.00;;;;;;;22.84;43.12;102020.69;5089010;28;20220;-72
2022/07/15 11:14:53;;;;;;;1.83;0.80;;;;;;;22.54;43.58;102018.44;5090390;28;20254;-72
2022/07/15 11:17:25;;;;;;;2.37;0.80;;;;;;;22.23;43.95;102019.59;5090054;28;20184;-72
2022/07/15 11:19:56;;;;;;;1.40;0.70;;;;;;;21.82;43.67;102022.56;5090212;28;20204;-72
2022/07/15 11:22:23;;;;;;;6.33;0.80;;;;;;;21.79;44.40;102030.41;5090407;28;20169;-72
2022/07/15 11:24:49;;;;;;;3.40;0.80;;;;;;;22.18;43.82;102019.66;5090158;28;20292;-72
2022/07/15 11:27:14;;;;;;;1.17;0.70;;;;;;;22.61;43.24;102014.88;5090055;28;20191;-72
2022/07/15 11:29:42;;;;;;;2.87;0.80;;;;;;;23.38;43.15;102006.94;5089906;28;20253;-72
2022/07/15 11:32:08;;;;;;;2.63;0.87;;;;;;;23.96;42.68;102007.81;5071860;28;20204;-72
2022/07/15 11:34:42;;;;;;;3.92;0.70;;;;;;;23.68;41.43;102010.84;5090136;28;20662;-72